createdAt,value
2023-05-01T00:02:54.382Z,45.42
2023-05-01T00:06:01.915Z,45.29
2023-05-01T00:09:07.105Z,45.27
2023-05-01T00:12:09.873Z,45.46
2023-05-01T00:15:13.976Z,45.35
2023-05-01T00:18:17.344Z,45.25
2023-05-01T00:21:20.281Z,45.43
2023-05-01T00:24:23.028Z,45.32
2023-05-01T00:27:25.737Z,45.74
2023-05-01T00:30:29.882Z,45.79
2023-05-01T00:33:32.669Z,45.81
2023-05-01T00:36:35.506Z,45.72
2023-05-01T00:39:38.317Z,45.52
2023-05-01T00:42:41.093Z,45.58
2023-05-01T00:45:47.080Z,45.39
2023-05-01T00:48:50.117Z,45.40
2023-05-01T00:51:54.114Z,45.37
2023-05-01T00:54:57.933Z,45.37
2023-05-01T00:58:02.196Z,45.41
2023-05-01T01:01:08.908Z,45.32
2023-05-01T01:04:12.070Z,45.48
2023-05-01T01:07:22.003Z,45.51
2023-05-01T01:10:31.251Z,45.71
2023-05-01T01:13:40.665Z,45.67
2023-05-01T01:16:52.953Z,45.73
2023-05-01T01:20:15.937Z,45.57
2023-05-01T01:23:44.045Z,45.54
2023-05-01T01:27:14.486Z,45.51
2023-05-01T01:30:36.307Z,45.60
2023-05-01T01:34:01.587Z,45.50
2023-05-01T01:37:12.776Z,45.64
2023-05-01T01:40:20.036Z,45.90
2023-05-01T01:43:25.269Z,45.83
2023-05-01T01:46:29.074Z,45.76
2023-05-01T01:49:35.187Z,45.90
2023-05-01T01:52:41.696Z,45.75
2023-05-01T01:55:46.519Z,45.75
2023-05-01T01:58:52.250Z,45.76
2023-05-01T02:01:57.633Z,45.83
2023-05-01T02:05:02.731Z,45.81
2023-05-01T02:08:06.371Z,45.92
2023-05-01T02:11:09.952Z,45.88
2023-05-01T02:14:14.281Z,45.94
2023-05-01T02:17:20.090Z,45.89
2023-05-01T02:20:24.443Z,45.91
2023-05-01T02:23:28.955Z,45.98
2023-05-01T02:26:36.358Z,45.88
2023-05-01T02:29:39.458Z,45.98
2023-05-01T02:32:42.584Z,45.88
2023-05-01T02:35:47.934Z,45.95
2023-05-01T02:38:52.989Z,45.87
2023-05-01T02:41:58.426Z,45.83
2023-05-01T02:45:04.471Z,45.88
2023-05-01T02:48:13.771Z,45.75
2023-05-01T02:51:22.026Z,45.83
2023-05-01T02:54:24.991Z,45.30
2023-05-01T02:57:28.037Z,45.05
2023-05-01T03:00:30.991Z,45.14
2023-05-01T03:03:33.983Z,45.43
2023-05-01T03:06:39.014Z,45.41
2023-05-01T03:09:41.880Z,45.50
2023-05-01T03:12:44.596Z,45.51
2023-05-01T03:15:47.626Z,45.63
2023-05-01T03:18:50.334Z,45.71
2023-05-01T03:21:55.131Z,45.74
2023-05-01T03:24:57.877Z,45.71
2023-05-01T03:28:00.634Z,45.67
2023-05-01T03:31:03.590Z,45.76
2023-05-01T03:34:07.796Z,45.74
2023-05-01T03:37:11.951Z,45.79
2023-05-01T03:40:15.147Z,45.80
2023-05-01T03:43:36.814Z,45.80
2023-05-01T03:46:45.438Z,45.70
2023-05-01T03:49:55.386Z,45.78
2023-05-01T03:52:59.647Z,45.86
2023-05-01T03:56:04.516Z,45.78
2023-05-01T03:59:07.671Z,45.68
2023-05-01T04:02:10.730Z,45.71
2023-05-01T04:05:14.472Z,45.73
2023-05-01T04:08:23.220Z,45.71
2023-05-01T04:11:26.142Z,45.67
2023-05-01T04:14:29.100Z,45.70
2023-05-01T04:17:32.613Z,45.63
2023-05-01T04:20:35.765Z,45.57
2023-05-01T04:23:39.868Z,45.53
2023-05-01T04:26:42.989Z,45.56
2023-05-01T04:29:46.241Z,45.47
2023-05-01T04:32:49.062Z,45.47
2023-05-01T04:35:52.145Z,45.50
2023-05-01T04:38:56.402Z,45.45
2023-05-01T04:41:59.348Z,45.41
2023-05-01T04:45:04.244Z,45.52
2023-05-01T04:48:10.745Z,45.45
2023-05-01T04:51:13.526Z,45.36
2023-05-01T04:54:17.692Z,45.43
2023-05-01T04:57:21.819Z,45.54
2023-05-01T05:00:26.254Z,45.47
2023-05-01T05:03:32.643Z,45.43
2023-05-01T05:06:35.903Z,45.49
2023-05-01T05:09:40.919Z,45.46
2023-05-01T05:12:43.697Z,45.48
2023-05-01T05:15:46.433Z,45.52
2023-05-01T05:18:49.725Z,45.58
2023-05-01T05:21:53.071Z,45.46
2023-05-01T05:24:59.998Z,45.55
2023-05-01T05:28:02.804Z,45.62
2023-05-01T05:31:05.626Z,45.59
2023-05-01T05:34:08.813Z,45.77
2023-05-01T05:37:12.518Z,45.73
2023-05-01T05:40:25.488Z,45.69
2023-05-01T05:43:31.116Z,45.82
2023-05-01T05:46:34.047Z,46.06
2023-05-01T05:49:36.827Z,45.76
2023-05-01T05:52:39.676Z,45.77
2023-05-01T05:55:45.422Z,45.88
2023-05-01T05:58:48.224Z,45.82
2023-05-01T06:01:51.006Z,45.74
2023-05-01T06:04:53.736Z,45.75
2023-05-01T06:07:56.660Z,45.74
2023-05-01T06:11:00.740Z,45.70
2023-05-01T06:14:03.567Z,45.70
2023-05-01T06:17:06.956Z,45.78
2023-05-01T06:20:11.603Z,45.77
2023-05-01T06:23:15.481Z,45.90
2023-05-01T06:26:28.112Z,45.82
2023-05-01T06:29:31.040Z,45.94
2023-05-01T06:32:33.874Z,45.92
2023-05-01T06:35:37.313Z,45.94
2023-05-01T06:38:41.465Z,45.92
2023-05-01T06:41:47.623Z,45.87
2023-05-01T06:44:51.248Z,45.88
2023-05-01T06:47:54.452Z,45.85
2023-05-01T06:50:57.593Z,45.80
2023-05-01T06:54:00.428Z,45.77
2023-05-01T06:57:04.696Z,45.83
2023-05-01T07:00:08.574Z,45.78
2023-05-01T07:03:11.803Z,45.88
2023-05-01T07:06:14.655Z,45.86
2023-05-01T07:09:17.474Z,45.87
2023-05-01T07:12:22.567Z,45.83
2023-05-01T07:15:25.294Z,45.90
2023-05-01T07:18:28.096Z,45.91
2023-05-01T07:21:32.148Z,45.84
2023-05-01T07:24:34.894Z,45.91
2023-05-01T07:27:38.989Z,46.00
2023-05-01T07:30:41.937Z,45.94
2023-05-01T07:33:44.712Z,46.02
2023-05-01T07:36:47.571Z,45.95
2023-05-01T07:39:50.510Z,46.16
2023-05-01T07:42:54.800Z,46.16
2023-05-01T07:45:58.846Z,46.25
2023-05-01T07:49:01.842Z,46.19
2023-05-01T07:52:05.311Z,46.31
2023-05-01T07:55:09.756Z,46.34
2023-05-01T07:58:13.866Z,46.41
2023-05-01T08:01:16.682Z,46.50
2023-05-01T08:04:21.576Z,46.37
2023-05-01T08:07:24.697Z,46.33
2023-05-01T08:10:28.751Z,46.50
2023-05-01T08:13:33.035Z,46.41
2023-05-01T08:16:36.078Z,46.44
2023-05-01T08:19:38.849Z,46.48
2023-05-01T08:22:41.573Z,46.52
2023-05-01T08:25:46.721Z,46.33
2023-05-01T08:28:50.866Z,46.19
2023-05-01T08:31:53.814Z,46.15
2023-05-01T08:34:56.639Z,46.05
2023-05-01T08:37:59.371Z,45.76
2023-05-01T08:41:03.399Z,45.60
2023-05-01T08:44:09.652Z,45.43
2023-05-01T08:47:16.261Z,45.00
2023-05-01T08:50:19.408Z,44.77
2023-05-01T08:53:23.305Z,44.36
2023-05-01T08:56:26.688Z,44.22
2023-05-01T08:59:32.581Z,44.91
2023-05-01T09:02:37.104Z,45.07
2023-05-01T09:05:40.403Z,46.00
2023-05-01T09:08:43.226Z,45.86
2023-05-01T09:11:46.183Z,45.59
2023-05-01T09:14:51.003Z,45.36
2023-05-01T09:17:54.457Z,45.13
2023-05-01T09:20:57.873Z,44.83
2023-05-01T09:24:01.740Z,44.60
2023-05-01T09:27:04.580Z,44.20
2023-05-01T09:30:10.116Z,43.33
2023-05-01T09:33:14.259Z,42.63
2023-05-01T09:36:18.600Z,42.32
2023-05-01T09:39:24.210Z,42.20
2023-05-01T09:42:26.940Z,42.31
2023-05-01T09:45:31.175Z,42.46
2023-05-01T09:48:36.030Z,42.50
2023-05-01T09:51:39.570Z,42.62
2023-05-01T09:54:42.559Z,42.70
2023-05-01T09:57:47.730Z,42.73
2023-05-01T10:00:52.099Z,42.54
2023-05-01T10:03:56.851Z,42.42
2023-05-01T10:07:00.179Z,42.41
2023-05-01T10:10:19.562Z,42.41
2023-05-01T10:13:22.315Z,42.48
2023-05-01T10:16:35.334Z,42.44
2023-05-01T10:19:38.117Z,42.57
2023-05-01T10:22:41.720Z,42.72
2023-05-01T10:25:45.975Z,42.72
2023-05-01T10:28:50.265Z,42.78
2023-05-01T10:31:54.544Z,42.93
2023-05-01T10:35:01.512Z,42.97
2023-05-01T10:38:07.704Z,43.20
2023-05-01T10:41:10.705Z,43.28
2023-05-01T10:44:24.040Z,43.44
2023-05-01T10:47:46.627Z,44.28
2023-05-01T10:51:08.450Z,44.47
2023-05-01T10:54:25.688Z,43.97
2023-05-01T10:57:44.226Z,43.75
2023-05-01T11:01:25.716Z,43.71
2023-05-01T11:04:51.417Z,43.35
2023-05-01T11:08:28.339Z,42.87
2023-05-01T11:11:50.257Z,42.89
2023-05-01T11:15:08.184Z,42.60
2023-05-01T11:18:12.143Z,42.18
2023-05-01T11:21:17.488Z,42.36
2023-05-01T11:24:20.648Z,42.08
2023-05-01T11:27:23.731Z,41.50
2023-05-01T11:30:26.945Z,41.56
2023-05-01T11:33:30.045Z,41.60
2023-05-01T11:36:48.918Z,41.15
2023-05-01T11:39:52.617Z,40.87
2023-05-01T11:43:02.388Z,40.93
2023-05-01T11:46:05.332Z,41.09
2023-05-01T11:49:08.498Z,41.55
2023-05-01T11:52:13.316Z,41.88
2023-05-01T11:55:17.374Z,42.05
2023-05-01T11:58:32.200Z,42.42
2023-05-01T12:01:36.008Z,42.57
2023-05-01T12:04:38.883Z,42.85
2023-05-01T12:07:43.284Z,42.39
2023-05-01T12:10:48.152Z,40.40
2023-05-01T12:13:51.214Z,37.96
2023-05-01T12:16:54.228Z,38.41
2023-05-01T12:19:57.898Z,39.37
2023-05-01T12:23:04.924Z,39.19
2023-05-01T12:26:17.636Z,39.22
2023-05-01T12:29:20.363Z,39.49
2023-05-01T12:32:32.351Z,39.52
2023-05-01T12:35:35.494Z,39.37
2023-05-01T12:38:39.864Z,39.27
2023-05-01T12:41:44.393Z,39.34
2023-05-01T12:44:47.479Z,39.50
2023-05-01T12:47:50.361Z,39.61
2023-05-01T12:50:55.334Z,40.37
2023-05-01T12:53:59.631Z,42.14
2023-05-01T12:57:09.847Z,43.56
2023-05-01T13:00:13.946Z,43.02
2023-05-01T13:03:19.931Z,41.44
2023-05-01T13:06:23.231Z,41.37
2023-05-01T13:09:30.787Z,41.32
2023-05-01T13:12:34.159Z,41.23
2023-05-01T13:15:37.493Z,41.38
2023-05-01T13:18:47.344Z,41.55
2023-05-01T13:21:50.728Z,41.73
2023-05-01T13:24:54.917Z,41.77
2023-05-01T13:27:57.721Z,42.05
2023-05-01T13:31:00.792Z,42.22
2023-05-01T13:34:05.687Z,42.35
2023-05-01T13:37:12.376Z,42.50
2023-05-01T13:40:17.219Z,42.53
2023-05-01T13:43:22.258Z,42.61
2023-05-01T13:46:27.369Z,42.71
2023-05-01T13:49:30.210Z,42.94
2023-05-01T13:52:33.351Z,43.01
2023-05-01T13:55:40.951Z,43.04
2023-05-01T13:58:43.766Z,43.13
2023-05-01T14:01:47.830Z,43.26
2023-05-01T14:04:50.783Z,43.28
2023-05-01T14:07:56.832Z,43.37
2023-05-01T14:11:01.357Z,43.93
2023-05-01T14:14:05.024Z,44.82
2023-05-01T14:17:08.022Z,45.27
2023-05-01T14:20:11.276Z,45.17
2023-05-01T14:23:16.719Z,45.16
2023-05-01T14:26:22.104Z,45.10
2023-05-01T14:29:28.040Z,45.08
2023-05-01T14:32:33.403Z,45.00
2023-05-01T14:35:37.052Z,45.53
2023-05-01T14:38:41.527Z,46.15
2023-05-01T14:41:45.742Z,46.87
2023-05-01T14:44:48.512Z,46.68
2023-05-01T14:47:51.399Z,47.22
2023-05-01T14:50:55.174Z,46.52
2023-05-01T14:53:58.125Z,46.33
2023-05-01T14:57:06.258Z,46.15
2023-05-01T15:00:10.642Z,45.99
2023-05-01T15:03:13.532Z,45.87
2023-05-01T15:06:17.122Z,45.81
2023-05-01T15:09:20.158Z,45.65
2023-05-01T15:12:24.269Z,45.69
2023-05-01T15:15:27.541Z,45.69
2023-05-01T15:18:30.404Z,45.70
2023-05-01T15:21:33.253Z,45.72
2023-05-01T15:24:36.101Z,45.70
2023-05-01T15:27:40.273Z,45.65
2023-05-01T15:30:45.852Z,45.61
2023-05-01T15:34:13.616Z,45.61
2023-05-01T15:37:17.042Z,45.62
2023-05-01T15:40:20.344Z,45.54
2023-05-01T15:43:24.471Z,45.56
2023-05-01T15:46:27.970Z,45.53
2023-05-01T15:49:31.153Z,45.57
2023-05-01T15:52:34.108Z,45.49
2023-05-01T15:55:36.933Z,45.54
2023-05-01T15:58:41.184Z,45.54
2023-05-01T16:01:44.074Z,45.54
2023-05-01T16:04:47.776Z,45.61
2023-05-01T16:07:55.793Z,45.55
2023-05-01T16:10:58.703Z,45.62
2023-05-01T16:14:02.882Z,45.64
2023-05-01T16:17:06.629Z,45.49
2023-05-01T16:20:12.100Z,45.47
2023-05-01T16:23:16.307Z,45.54
2023-05-01T16:26:23.052Z,45.44
2023-05-01T16:29:27.269Z,45.46
2023-05-01T16:32:30.075Z,45.42
2023-05-01T16:35:32.981Z,45.44
2023-05-01T16:38:35.851Z,45.37
2023-05-01T16:41:44.449Z,45.27
2023-05-01T16:44:48.587Z,45.48
2023-05-01T16:47:51.618Z,45.35
2023-05-01T16:50:54.523Z,45.33
2023-05-01T16:53:57.280Z,45.44
2023-05-01T16:57:00.169Z,45.39
2023-05-01T17:00:05.597Z,45.28
2023-05-01T17:03:08.454Z,45.42
2023-05-01T17:06:11.240Z,45.46
2023-05-01T17:09:14.265Z,45.50
2023-05-01T17:12:30.035Z,45.56
2023-05-01T17:15:34.364Z,45.66
2023-05-01T17:18:37.507Z,45.43
2023-05-01T17:21:40.412Z,45.55
2023-05-01T17:24:43.210Z,45.68
2023-05-01T17:27:45.988Z,45.77
2023-05-01T17:30:50.125Z,45.73
2023-05-01T17:33:52.888Z,45.79
2023-05-01T17:36:57.827Z,45.78
2023-05-01T17:40:01.074Z,45.82
2023-05-01T17:43:04.342Z,45.98
2023-05-01T17:46:08.950Z,45.95
2023-05-01T17:49:11.782Z,45.89
2023-05-01T17:52:14.529Z,46.11
2023-05-01T17:55:18.381Z,46.01
2023-05-01T17:58:21.585Z,46.15
2023-05-01T18:01:25.779Z,46.19
2023-05-01T18:04:28.805Z,46.23
2023-05-01T18:07:31.571Z,46.26
2023-05-01T18:10:34.339Z,46.24
2023-05-01T18:13:39.768Z,46.35
2023-05-01T18:16:44.132Z,46.36
2023-05-01T18:19:46.938Z,46.48
2023-05-01T18:22:49.988Z,46.50
2023-05-01T18:25:52.743Z,46.52
2023-05-01T18:28:55.517Z,46.39
2023-05-01T18:32:00.232Z,46.42
2023-05-01T18:35:03.762Z,46.36
2023-05-01T18:38:06.688Z,46.49
2023-05-01T18:41:09.422Z,46.36
2023-05-01T18:44:12.216Z,46.37
2023-05-01T18:47:16.316Z,46.38
2023-05-01T18:50:21.742Z,46.39
2023-05-01T18:53:24.673Z,46.36
2023-05-01T18:56:27.711Z,46.32
2023-05-01T18:59:32.175Z,46.41
2023-05-01T19:02:36.693Z,46.42
2023-05-01T19:05:41.407Z,46.31
2023-05-01T19:08:44.363Z,46.41
2023-05-01T19:11:48.147Z,46.50
2023-05-01T19:14:50.864Z,46.56
2023-05-01T19:17:54.948Z,46.51
2023-05-01T19:20:57.752Z,46.74
2023-05-01T19:24:00.548Z,46.54
2023-05-01T19:27:04.018Z,46.59
2023-05-01T19:30:08.265Z,46.50
2023-05-01T19:33:12.482Z,46.54
2023-05-01T19:36:15.387Z,46.72
2023-05-01T19:39:18.208Z,46.62
2023-05-01T19:42:21.103Z,46.73
2023-05-01T19:45:23.885Z,46.80
2023-05-01T19:48:28.085Z,46.99
2023-05-01T19:51:31.459Z,46.90
2023-05-01T19:54:34.339Z,47.00
2023-05-01T19:57:37.140Z,46.92
2023-05-01T20:00:39.947Z,46.92
2023-05-01T20:03:44.130Z,46.83
2023-05-01T20:06:47.197Z,46.77
2023-05-01T20:09:50.232Z,46.74
2023-05-01T20:12:53.644Z,46.70
2023-05-01T20:15:56.397Z,46.77
2023-05-01T20:19:00.522Z,46.78
2023-05-01T20:22:03.310Z,46.88
2023-05-01T20:25:09.398Z,46.74
2023-05-01T20:28:14.752Z,46.82
2023-05-01T20:31:17.796Z,46.65
2023-05-01T20:34:25.044Z,46.77
2023-05-01T20:37:27.820Z,46.64
2023-05-01T20:40:30.618Z,46.70
2023-05-01T20:43:33.373Z,46.86
2023-05-01T20:46:36.382Z,46.65
2023-05-01T20:49:40.500Z,46.61
2023-05-01T20:52:43.217Z,46.68
2023-05-01T20:55:46.040Z,46.68
2023-05-01T20:58:48.890Z,46.88
2023-05-01T21:01:51.669Z,46.78
2023-05-01T21:04:56.382Z,46.95
2023-05-01T21:07:59.047Z,46.86
2023-05-01T21:11:02.203Z,46.85
2023-05-01T21:14:04.914Z,46.79
2023-05-01T21:17:08.417Z,46.70
2023-05-01T21:20:16.954Z,46.90
2023-05-01T21:23:19.683Z,46.93
2023-05-01T21:26:22.548Z,46.98
2023-05-01T21:29:25.359Z,47.01
2023-05-01T21:32:32.430Z,46.92
2023-05-01T21:35:36.672Z,47.06
2023-05-01T21:38:40.048Z,47.41
2023-05-01T21:41:43.050Z,47.46
2023-05-01T21:44:45.831Z,47.39
2023-05-01T21:47:50.663Z,47.39
2023-05-01T21:50:54.865Z,47.24
2023-05-01T21:53:57.591Z,47.23
2023-05-01T21:57:00.607Z,47.01
2023-05-01T22:00:04.717Z,46.78
2023-05-01T22:03:10.978Z,46.82
2023-05-01T22:06:15.158Z,46.73
2023-05-01T22:09:17.905Z,46.79
2023-05-01T22:12:20.707Z,46.81
2023-05-01T22:15:23.495Z,46.87
2023-05-01T22:18:26.945Z,46.86
2023-05-01T22:21:31.873Z,46.70
2023-05-01T22:24:36.093Z,46.61
2023-05-01T22:27:39.450Z,46.74
2023-05-01T22:30:44.235Z,46.87
2023-05-01T22:33:47.879Z,46.86
2023-05-01T22:36:51.988Z,46.92
2023-05-01T22:39:54.995Z,46.95
2023-05-01T22:42:57.753Z,46.89
2023-05-01T22:46:00.643Z,46.87
2023-05-01T22:49:04.277Z,46.98
2023-05-01T22:52:08.434Z,46.87
2023-05-01T22:55:11.878Z,46.85
2023-05-01T22:58:14.605Z,46.97
2023-05-01T23:01:17.394Z,46.84
2023-05-01T23:04:20.202Z,46.81
2023-05-01T23:07:24.479Z,46.72
2023-05-01T23:10:28.586Z,46.78
2023-05-01T23:13:32.283Z,46.73
2023-05-01T23:16:41.348Z,46.78
2023-05-01T23:19:44.425Z,46.86
2023-05-01T23:22:49.136Z,46.74
2023-05-01T23:25:51.955Z,46.66
2023-05-01T23:28:54.868Z,46.75
2023-05-01T23:31:57.836Z,46.78
2023-05-01T23:35:03.629Z,46.70
2023-05-01T23:38:07.771Z,46.67
2023-05-01T23:41:10.919Z,46.63
2023-05-01T23:44:13.686Z,46.74
2023-05-01T23:47:16.541Z,46.67
2023-05-01T23:50:19.410Z,46.77
2023-05-01T23:53:23.552Z,46.64
2023-05-01T23:56:26.478Z,46.76
2023-05-01T23:59:29.417Z,46.66
